Ingeniero Jacobacci, Argentina
Current Conditions -  °F | °C
As of 8:00 PM on Monday 22 Dec 2014 (Local Time) from SAZS Reporting Station
Clear Clear  
Wind Chill: 55°   Ceiling: Unl
Heat Index: 55°   Visibility: 6mi
Dew Point: 34°   Wind: 22mph
Humidity: 44%   Direction: 290°WNW
Pressure: 30.15"   Gusts: NA
Location:  41.43°S, 69.47°W
Report Text: SAZS 222300Z 29019KT CAVOK 13/01 Q1021
Loading
Personal Weather Stations






























Interactive Weather Map New forecast layout! Learn more

10-Day Weather Forecast

Advertisements
Track Severe Weather on mobile